Time;durP1;ratioP1;P1;durP2;ratioP2;P2;SDS_P1;SDS_P2;PMS_P1;PMS_P2;Temp;Humidity;BMP_temperature;BMP_pressure;BME280_temperature;BME280_humidity;BME280_pressure;Samples;Min_cycle;Max_cycle;Signal;HPM_P1;HPM_P2
2022/11/27 00:01:21;;;;;;;4.37;3.00;;;;;;;0.60;100.00;100640.44;1719536;82;21106;-68
2022/11/27 00:03:48;;;;;;;4.25;2.95;;;;;;;0.60;100.00;100652.00;1718936;83;21074;-68
2022/11/27 00:06:17;;;;;;;3.50;2.40;;;;;;;0.50;100.00;100645.55;1712366;82;21063;-68
2022/11/27 00:08:43;;;;;;;4.53;2.65;;;;;;;0.52;100.00;100652.58;1710501;84;21064;-68
2022/11/27 00:11:13;;;;;;;3.52;2.87;;;;;;;0.57;100.00;100651.53;1706095;84;21701;-67
2022/11/27 00:13:40;;;;;;;4.40;3.00;;;;;;;0.53;100.00;100660.95;1706069;84;21665;-68
2022/11/27 00:16:07;;;;;;;4.12;3.00;;;;;;;0.46;100.00;100652.29;1705978;84;21032;-68
2022/11/27 00:18:33;;;;;;;4.33;2.80;;;;;;;0.46;100.00;100660.86;1706125;84;21028;-68
2022/11/27 00:21:06;;;;;;;3.65;2.60;;;;;;;0.52;100.00;100653.92;1706179;84;21585;-68
2022/11/27 00:23:33;;;;;;;5.30;3.50;;;;;;;0.52;100.00;100657.94;1706190;84;21063;-67
2022/11/27 00:26:00;;;;;;;4.22;2.98;;;;;;;0.46;100.00;100658.98;1706198;84;21044;-67
2022/11/27 00:28:27;;;;;;;4.65;3.00;;;;;;;0.44;100.00;100661.53;1706230;84;21083;-67
2022/11/27 00:30:59;;;;;;;3.77;2.65;;;;;;;0.47;100.00;100652.62;1706308;84;21484;-67
2022/11/27 00:33:25;;;;;;;3.85;2.80;;;;;;;0.53;100.00;100656.43;1706152;84;21035;-68
2022/11/27 00:35:52;;;;;;;3.87;2.92;;;;;;;0.49;100.00;100661.33;1706320;84;21539;-67
2022/11/27 00:38:19;;;;;;;3.75;2.70;;;;;;;0.45;100.00;100658.69;1708688;84;21027;-68
2022/11/27 00:40:46;;;;;;;4.25;2.55;;;;;;;0.47;100.00;100659.32;1713945;84;21102;-67
2022/11/27 00:43:13;;;;;;;4.78;2.60;;;;;;;0.52;100.00;100656.60;1713813;84;21083;-68
2022/11/27 00:45:39;;;;;;;3.70;2.40;;;;;;;0.50;100.00;100648.73;1714107;84;21016;-68
2022/11/27 00:48:05;;;;;;;3.62;2.45;;;;;;;0.44;100.00;100650.31;1714162;84;21055;-68
2022/11/27 00:50:32;;;;;;;5.50;2.60;;;;;;;0.42;100.00;100647.51;1714162;84;21043;-66
2022/11/27 00:52:58;;;;;;;3.00;2.22;;;;;;;0.46;100.00;100644.79;1713959;84;21043;-66
2022/11/27 00:55:25;;;;;;;4.47;2.98;;;;;;;0.48;100.00;100639.56;1714138;84;21051;-66
2022/11/27 02:51:50;;;;;;;11.48;7.90;;;;;;;-1.07;100.00;100634.33;1797513;79;22985;-78
2022/11/27 02:54:20;;;;;;;8.63;6.17;;;;;;;-0.97;100.00;100639.44;1753031;82;20975;-78
2022/11/27 02:56:47;;;;;;;7.47;5.28;;;;;;;-0.74;100.00;100645.64;1752967;82;21026;-78
2022/11/27 02:59:13;;;;;;;;;;;;;;;-0.53;100.00;100643.66;1755679;82;21485;-77
2022/11/27 03:01:51;;;;;;;7.20;5.30;;;;;;;-0.36;100.00;100647.06;1751085;81;20141;-78
2022/11/27 03:04:22;;;;;;;6.25;4.30;;;;;;;-0.28;100.00;100646.98;1751276;81;21154;-78
2022/11/27 03:06:53;;;;;;;5.35;3.77;;;;;;;-0.19;100.00;100647.25;1751729;82;21604;-76
2022/11/27 03:09:31;;;;;;;5.70;3.87;;;;;;;-0.11;100.00;100652.55;1751154;82;21055;-76
2022/11/27 03:11:57;;;;;;;5.00;3.40;;;;;;;-0.10;100.00;100651.01;1751194;81;21098;-77
2022/11/27 03:14:24;;;;;;;5.45;3.42;;;;;;;-0.04;100.00;100658.84;1751268;82;21003;-76
2022/11/27 03:17:26;;;;;;;8.45;3.40;;;;;;;0.08;100.00;100663.23;1751658;82;21061;-75
2022/11/27 03:20:21;;;;;;;4.95;3.58;;;;;;;0.13;100.00;100660.86;1751317;82;21438;-75
2022/11/27 03:22:48;;;;;;;6.58;3.50;;;;;;;0.12;100.00;100667.21;1750915;82;21074;-77
2022/11/27 03:25:15;;;;;;;5.75;3.30;;;;;;;0.17;100.00;100666.17;1723886;82;21664;-77
2022/11/27 03:27:47;;;;;;;5.72;4.10;;;;;;;0.14;100.00;100659.34;1706221;84;21125;-76
2022/11/27 03:30:14;;;;;;;4.53;3.05;;;;;;;0.22;100.00;100671.30;1676343;84;21133;-76
2022/11/27 03:32:42;;;;;;;6.20;3.37;;;;;;;0.30;100.00;100676.58;1706051;84;21166;-76
2022/11/27 03:35:09;;;;;;;;;;;;;;;0.27;100.00;100672.94;1709061;82;22399;-77
2022/11/27 03:37:36;;;;;;;5.40;3.55;;;;;;;0.28;100.00;100677.28;1706574;82;20305;-76
2022/11/27 03:40:04;;;;;;;5.83;3.72;;;;;;;0.17;100.00;100675.05;1706240;82;21061;-77
2022/11/27 03:43:07;;;;;;;5.92;3.98;;;;;;;0.20;100.00;100673.34;1706380;82;21168;-77
2022/11/27 03:45:51;;;;;;;5.42;3.52;;;;;;;0.16;100.00;100672.53;1706061;84;21109;-77
2022/11/27 03:48:44;;;;;;;7.33;4.55;;;;;;;0.24;100.00;100673.30;1706170;84;21125;-78
2022/11/27 03:51:25;;;;;;;5.12;3.67;;;;;;;0.22;100.00;100667.28;1652113;83;22337;-77
2022/11/27 03:54:02;;;;;;;5.75;3.67;;;;;;;0.24;100.00;100665.77;1731424;82;21059;-78
2022/11/27 03:56:43;;;;;;;5.70;3.17;;;;;;;0.19;100.00;100663.63;1724580;82;21835;-77
2022/11/27 03:59:27;;;;;;;5.22;3.80;;;;;;;0.23;100.00;100662.26;1722878;82;21075;-77
2022/11/27 04:01:54;;;;;;;5.60;3.87;;;;;;;0.26;100.00;100662.39;1750138;82;21046;-75
2022/11/27 04:04:22;;;;;;;7.30;4.50;;;;;;;0.24;100.00;100665.27;1683246;85;21396;-75
2022/11/27 04:06:48;;;;;;;6.97;4.78;;;;;;;0.20;100.00;100665.80;1749696;82;21098;-75
2022/11/27 04:09:15;;;;;;;;;;;;;;;0.18;100.00;100671.33;1714206;84;21542;-75
2022/11/27 04:11:42;;;;;;;6.67;4.45;;;;;;;0.21;100.00;100673.67;1674781;85;20132;-75
2022/11/27 04:14:08;;;;;;;5.97;4.58;;;;;;;0.13;100.00;100677.75;1663017;85;21047;-75
2022/11/27 04:16:35;;;;;;;6.42;4.62;;;;;;;0.10;100.00;100677.28;1682853;85;21538;-76
2022/11/27 04:19:03;;;;;;;;;;;;;;;0.14;100.00;100678.59;1752304;82;21106;-78
2022/11/27 04:21:29;;;;;;;7.42;4.70;;;;;;;0.20;100.00;100682.70;1749757;82;20181;-77
2022/11/27 04:23:56;;;;;;;;;;;;;;;0.13;100.00;100680.94;1751964;82;21103;-77
2022/11/27 04:26:23;;;;;;;6.62;4.37;;;;;;;0.11;100.00;100672.27;1749910;82;20134;-77
2022/11/27 04:28:49;;;;;;;5.47;4.22;;;;;;;0.12;100.00;100679.27;1751139;82;21739;-77
2022/11/27 04:31:16;;;;;;;6.58;4.67;;;;;;;0.08;100.00;100675.28;1751748;82;21509;-77
2022/11/27 04:33:42;;;;;;;5.87;3.98;;;;;;;0.09;100.00;100674.27;1751608;82;21063;-77
2022/11/27 04:36:09;;;;;;;8.08;5.25;;;;;;;0.14;100.00;100683.45;1751573;82;21082;-77
2022/11/27 04:38:35;;;;;;;;;;;;;;;0.14;100.00;100676.75;1754042;82;21118;-77
2022/11/27 04:41:02;;;;;;;7.37;4.90;;;;;;;0.05;100.00;100677.81;1751209;82;20154;-77
2022/11/27 04:43:28;;;;;;;8.10;5.15;;;;;;;0.04;100.00;100679.36;1723703;82;21132;-78
2022/11/27 04:45:55;;;;;;;7.20;5.47;;;;;;;0.04;100.00;100676.68;1723705;82;21098;-77
2022/11/27 04:48:21;;;;;;;7.58;5.42;;;;;;;0.01;100.00;100675.17;1751317;82;21071;-77
2022/11/27 04:50:47;;;;;;;;;;;;;;;0.06;100.00;100674.14;1748736;81;21102;-77
2022/11/27 04:53:14;;;;;;;9.65;5.75;;;;;;;0.08;100.00;100673.94;1737287;82;20147;-77
2022/11/27 04:55:41;;;;;;;7.78;4.83;;;;;;;-0.01;100.00;100675.88;1737361;82;21137;-77
2022/11/27 04:58:09;;;;;;;9.58;5.85;;;;;;;0.03;100.00;100669.66;1737369;82;21154;-77
2022/11/27 05:00:36;;;;;;;8.75;5.28;;;;;;;0.06;100.00;100667.45;1737348;82;21087;-77
2022/11/27 05:03:03;;;;;;;7.37;5.00;;;;;;;0.00;100.00;100664.97;1737443;82;21047;-77
2022/11/27 05:05:29;;;;;;;7.62;4.80;;;;;;;0.03;100.00;100665.14;1737433;82;21118;-77
2022/11/27 05:07:56;;;;;;;8.45;5.58;;;;;;;0.03;100.00;100662.45;1737690;82;21063;-76
2022/11/27 05:10:23;;;;;;;8.55;5.37;;;;;;;0.11;100.00;100677.09;1737250;82;21620;-77
2022/11/27 05:12:49;;;;;;;7.97;5.10;;;;;;;0.06;100.00;100667.95;1737542;82;21407;-77
2022/11/27 05:15:16;;;;;;;;;;;;;;;0.08;100.00;100671.27;1739995;82;21564;-77
2022/11/27 05:17:43;;;;;;;8.78;5.40;;;;;;;0.06;100.00;100673.30;1728579;82;20512;-78
2022/11/27 05:20:10;;;;;;;7.80;4.80;;;;;;;-0.04;100.00;100674.91;1727158;82;21098;-77
2022/11/27 05:22:37;;;;;;;8.18;6.05;;;;;;;0.02;100.00;100672.83;1707721;84;21075;-77
2022/11/27 05:25:04;;;;;;;7.95;5.45;;;;;;;0.06;100.00;100671.97;1707867;84;21007;-76
2022/11/27 05:27:31;;;;;;;8.70;5.65;;;;;;;0.00;100.00;100670.33;1708695;83;21146;-77
2022/11/27 05:29:57;;;;;;;7.05;5.10;;;;;;;0.00;100.00;100670.86;1711683;82;20972;-77
2022/11/27 05:32:24;;;;;;;7.97;5.37;;;;;;;0.05;100.00;100674.31;1727272;82;22290;-77
2022/11/27 05:34:52;;;;;;;8.40;5.60;;;;;;;0.05;100.00;100672.47;1736978;82;21075;-77
2022/11/27 05:37:19;;;;;;;7.65;5.20;;;;;;;-0.01;100.00;100675.38;1736891;82;21079;-77
2022/11/27 05:39:46;;;;;;;;;;;;;;;-0.01;100.00;100673.20;1739683;82;21561;-77
2022/11/27 05:42:12;;;;;;;8.28;5.40;;;;;;;0.07;100.00;100678.99;1737843;82;20890;-76
2022/11/27 05:44:39;;;;;;;7.72;5.45;;;;;;;0.07;100.00;100677.15;1738211;82;21055;-76
2022/11/27 05:47:05;;;;;;;;;;;;;;;0.05;100.00;100670.30;1739923;82;21098;-77
2022/11/27 05:49:32;;;;;;;7.65;5.08;;;;;;;-0.01;100.00;100676.71;1720414;82;20177;-77
2022/11/27 05:51:58;;;;;;;7.30;5.37;;;;;;;0.00;100.00;100673.00;1708258;81;21074;-77
2022/11/27 05:54:24;;;;;;;8.43;5.80;;;;;;;0.06;100.00;100682.67;1708652;83;21096;-78
2022/11/27 05:56:51;;;;;;;8.28;5.42;;;;;;;0.00;100.00;100677.55;1708783;82;21043;-78
2022/11/27 05:59:18;;;;;;;7.15;5.22;;;;;;;0.05;100.00;100675.64;1721613;82;21020;-78
2022/11/27 06:01:44;;;;;;;;;;;;;;;0.09;100.00;100684.48;1724203;82;20987;-78
2022/11/27 06:04:11;;;;;;;7.50;5.00;;;;;;;0.12;100.00;100680.09;1737866;82;20469;-79
2022/11/27 06:06:37;;;;;;;8.65;5.78;;;;;;;0.04;100.00;100688.73;1740104;82;21024;-79
2022/11/27 06:09:05;;;;;;;8.38;5.37;;;;;;;0.03;100.00;100683.88;1739981;82;21101;-79
2022/11/27 06:15:02;;;;;;;9.25;5.72;;;;;;;0.10;100.00;100682.64;1884924;76;23345;-77
2022/11/27 06:17:29;;;;;;;7.87;5.55;;;;;;;0.08;100.00;100688.16;1830200;77;21087;-77
2022/11/27 10:31:13;;;;;;;11.30;7.92;;;;;;;-1.02;100.00;100669.36;1786445;79;22987;-77
2022/11/27 10:33:45;;;;;;;8.73;5.87;;;;;;;-0.90;100.00;100684.52;1749692;82;21632;-73
2022/11/27 10:36:41;;;;;;;8.00;4.92;;;;;;;-0.64;100.00;100680.20;1729715;82;21070;-74
2022/11/27 10:39:17;;;;;;;6.75;4.72;;;;;;;-0.46;100.00;100671.89;1718255;83;21655;-72
2022/11/27 10:41:55;;;;;;;5.53;3.75;;;;;;;-0.30;100.00;100671.76;1750330;82;21539;-75
2022/11/27 10:44:37;;;;;;;4.97;3.37;;;;;;;-0.21;100.00;100665.31;1751927;82;21090;-72
2022/11/27 10:47:06;;;;;;;5.12;3.25;;;;;;;-0.11;100.00;100665.93;1750468;82;21078;-75
2022/11/27 10:49:33;;;;;;;5.15;3.60;;;;;;;-0.10;100.00;100663.05;1734307;82;21086;-73
2022/11/27 10:52:00;;;;;;;4.95;3.02;;;;;;;-0.06;100.00;100656.33;1719714;83;21655;-74
2022/11/27 10:54:32;;;;;;;4.42;2.92;;;;;;;0.02;100.00;100651.41;1726612;82;21071;-73
2022/11/27 10:57:55;;;;;;;5.78;3.42;;;;;;;0.07;100.00;100654.39;1731460;82;21074;-74
2022/11/27 11:00:23;;;;;;;6.12;3.33;;;;;;;0.06;100.00;100654.06;1735973;82;21578;-73
2022/11/27 11:03:09;;;;;;;4.60;3.10;;;;;;;0.12;100.00;100656.00;1708031;82;22281;-72
2022/11/27 11:05:36;;;;;;;5.40;3.50;;;;;;;0.11;100.00;100655.67;1732509;82;21047;-75
2022/11/27 11:08:07;;;;;;;6.35;3.90;;;;;;;0.18;100.00;100654.46;1734096;82;21026;-71
2022/11/27 11:10:39;;;;;;;5.25;3.17;;;;;;;0.24;100.00;100657.73;1730696;82;21082;-72
2022/11/27 11:13:17;;;;;;;5.92;3.40;;;;;;;0.22;100.00;100653.05;1732715;81;21314;-72
2022/11/27 11:16:05;;;;;;;5.30;3.10;;;;;;;0.26;100.00;100651.17;1738389;82;21027;-72
2022/11/27 11:18:43;;;;;;;4.62;3.42;;;;;;;0.31;100.00;100647.45;1714551;82;20936;-72
2022/11/27 11:21:16;;;;;;;;;;;;;;;0.30;100.00;100647.63;1737843;82;21007;-72
2022/11/27 11:23:45;;;;;;;4.67;3.00;;;;;;;0.34;100.00;100651.60;1725334;82;20154;-73
2022/11/27 11:26:27;;;;;;;4.65;2.92;;;;;;;0.28;100.00;100654.52;1688945;82;21034;-73
2022/11/27 11:28:57;;;;;;;3.92;2.60;;;;;;;0.35;100.00;100648.75;1735436;82;21054;-74
2022/11/27 11:31:31;;;;;;;3.27;2.45;;;;;;;0.47;100.00;100653.96;1723258;82;21020;-73
2022/11/27 11:34:06;;;;;;;4.30;2.95;;;;;;;0.44;100.00;100651.66;1725637;82;20972;-72
2022/11/27 11:36:33;;;;;;;3.87;2.75;;;;;;;0.40;100.00;100652.20;1724745;82;21032;-72
2022/11/27 11:38:59;;;;;;;;;;;;;;;0.41;100.00;100649.35;1726822;82;20996;-71
2022/11/27 11:41:36;;;;;;;4.95;3.08;;;;;;;0.37;100.00;100652.07;1724565;82;20428;-72
2022/11/27 11:44:04;;;;;;;4.92;3.12;;;;;;;0.23;100.00;100656.91;1723919;82;21582;-72
2022/11/27 11:46:32;;;;;;;4.42;3.05;;;;;;;0.21;100.00;100654.09;1721142;82;21570;-72
2022/11/27 11:49:07;;;;;;;4.85;3.10;;;;;;;0.28;100.00;100655.02;1723604;82;21036;-72
2022/11/27 11:52:03;;;;;;;5.42;2.77;;;;;;;0.34;100.00;100651.10;1717052;82;21700;-72
2022/11/27 11:54:50;;;;;;;4.78;3.30;;;;;;;0.36;100.00;100653.58;1724906;82;21579;-72
2022/11/27 11:57:24;;;;;;;;;;;;;;;0.28;100.00;100655.02;1708947;82;21941;-72
2022/11/27 12:00:06;;;;;;;4.30;2.92;;;;;;;0.34;100.00;100655.12;1705639;82;20111;-71
2022/11/27 12:02:52;;;;;;;3.90;2.95;;;;;;;0.38;100.00;100648.88;1721968;82;21426;-72
2022/11/27 12:05:32;;;;;;;7.47;4.72;;;;;;;0.36;100.00;100658.43;1724933;82;21044;-69
2022/11/27 12:08:31;;;;;;;5.47;3.40;;;;;;;0.35;100.00;100659.97;1726626;82;20984;-71
2022/11/27 12:11:21;;;;;;;4.10;3.10;;;;;;;0.45;100.00;100668.56;1740101;82;21044;-69
2022/11/27 12:13:56;;;;;;;4.58;3.10;;;;;;;0.47;100.00;100663.34;1732349;82;20976;-70
2022/11/27 12:17:05;;;;;;;4.40;2.95;;;;;;;0.38;100.00;100666.30;1736308;82;21064;-71
2022/11/27 12:19:40;;;;;;;4.00;2.83;;;;;;;0.41;100.00;100674.80;1673317;86;21091;-72
2022/11/27 12:22:39;;;;;;;6.05;4.12;;;;;;;0.43;100.00;100670.08;1701488;84;21013;-71
2022/11/27 12:25:31;;;;;;;4.30;2.87;;;;;;;0.37;100.00;100665.96;1736618;82;21578;-71
2022/11/27 12:28:52;;;;;;;3.58;2.65;;;;;;;0.44;100.00;100669.57;1673219;86;21060;-71
2022/11/27 12:31:36;;;;;;;7.47;4.05;;;;;;;0.50;100.00;100662.12;1736174;82;21064;-72
2022/11/27 12:34:31;;;;;;;4.22;2.80;;;;;;;0.41;100.00;100660.06;1727349;82;21001;-70
2022/11/27 12:37:35;;;;;;;5.72;3.95;;;;;;;0.40;100.00;100666.43;1736548;82;21849;-70
2022/11/27 12:40:33;;;;;;;4.40;2.95;;;;;;;0.43;100.00;100658.02;1736409;82;21102;-70
2022/11/27 12:43:09;;;;;;;4.70;3.30;;;;;;;0.54;100.00;100658.58;1736705;82;21070;-70
2022/11/27 12:45:41;;;;;;;4.37;2.77;;;;;;;0.52;100.00;100660.63;1736140;82;21098;-69
2022/11/27 12:48:27;;;;;;;3.98;2.52;;;;;;;0.49;100.00;100667.19;1738424;82;21008;-70
2022/11/27 12:50:58;;;;;;;3.70;2.55;;;;;;;0.58;100.00;100657.19;1736379;82;21083;-70
2022/11/27 12:53:42;;;;;;;3.83;2.83;;;;;;;0.60;100.00;100668.08;1738067;82;21043;-70
2022/11/27 12:56:29;;;;;;;3.83;2.83;;;;;;;0.56;100.00;100670.80;1738023;82;21008;-70
2022/11/27 12:59:32;;;;;;;5.87;3.57;;;;;;;0.59;100.00;100678.45;1726294;82;20972;-70
2022/11/27 13:02:07;;;;;;;5.47;3.47;;;;;;;0.59;100.00;100678.45;1723538;82;21870;-70
2022/11/27 13:04:49;;;;;;;6.20;3.55;;;;;;;0.68;100.00;100665.78;1720977;82;21888;-69
2022/11/27 13:07:53;;;;;;;5.53;3.30;;;;;;;0.64;100.00;100668.53;1718257;81;21816;-69
2022/11/27 13:10:41;;;;;;;5.30;3.50;;;;;;;0.57;100.00;100666.27;1737309;82;21141;-71
2022/11/27 13:13:32;;;;;;;4.70;3.27;;;;;;;0.47;100.00;100667.36;1737208;82;21042;-71
2022/11/27 13:16:21;;;;;;;3.90;2.70;;;;;;;0.49;100.00;100672.05;1737235;82;21071;-70
2022/11/27 13:18:55;;;;;;;4.15;3.00;;;;;;;0.57;100.00;100672.97;1737409;82;21040;-71
2022/11/27 13:21:26;;;;;;;5.03;3.20;;;;;;;0.61;100.00;100676.91;1736943;82;21075;-70
2022/11/27 13:23:52;;;;;;;6.25;3.80;;;;;;;0.54;100.00;100662.59;1737080;82;21007;-69
2022/11/27 13:26:27;;;;;;;6.17;3.33;;;;;;;0.55;100.00;100674.98;1736610;82;21114;-70
2022/11/27 13:28:57;;;;;;;6.22;3.72;;;;;;;0.56;100.00;100669.95;1737032;81;21606;-70
2022/11/27 13:31:31;;;;;;;5.92;3.52;;;;;;;0.54;100.00;100670.13;1743931;81;21594;-71
2022/11/27 13:34:17;;;;;;;6.17;4.30;;;;;;;0.53;100.00;100659.61;1745880;82;21074;-70
2022/11/27 13:36:45;;;;;;;6.95;4.47;;;;;;;0.43;100.00;100657.19;1745565;82;21368;-69
2022/11/27 13:39:26;;;;;;;7.05;4.40;;;;;;;0.42;100.00;100657.72;1745738;82;21026;-68
2022/11/27 13:42:05;;;;;;;6.83;4.45;;;;;;;0.44;100.00;100666.89;1745427;82;21541;-70
2022/11/27 13:44:36;;;;;;;5.00;3.50;;;;;;;0.34;100.00;100666.33;1747196;82;21027;-68
2022/11/27 13:47:10;;;;;;;5.25;3.20;;;;;;;0.34;100.00;100669.02;1747047;82;21016;-68
2022/11/27 13:49:36;;;;;;;6.87;4.58;;;;;;;0.44;100.00;100665.55;1747098;82;20988;-67
2022/11/27 13:52:16;;;;;;;7.47;4.62;;;;;;;0.50;100.00;100679.55;1747021;82;21055;-69
2022/11/27 13:55:04;;;;;;;6.83;4.47;;;;;;;0.47;100.00;100678.07;1746893;82;20968;-67
2022/11/27 13:57:33;;;;;;;5.87;3.92;;;;;;;0.46;100.00;100682.30;1718260;82;20945;-68
2022/11/27 14:00:12;;;;;;;6.35;3.85;;;;;;;0.48;100.00;100682.92;1747155;82;21534;-67
2022/11/27 14:02:47;;;;;;;7.45;4.20;;;;;;;0.49;100.00;100688.11;1747158;82;20996;-68
2022/11/27 14:05:17;;;;;;;6.12;4.15;;;;;;;0.45;100.00;100690.00;1747128;82;21055;-68
2022/11/27 14:07:51;;;;;;;7.40;4.28;;;;;;;0.38;100.00;100684.55;1747349;82;21000;-69
2022/11/27 14:10:22;;;;;;;7.45;4.70;;;;;;;0.41;100.00;100684.17;1746972;82;21534;-68
2022/11/27 18:22:13;;;;;;;12.98;7.70;;;;;;;-1.54;100.00;100686.42;1777103;79;22992;-68
2022/11/27 18:24:41;;;;;;;11.35;6.83;;;;;;;-1.40;100.00;100699.56;1722345;82;21065;-68
2022/11/27 18:27:08;;;;;;;11.80;6.85;;;;;;;-1.19;100.00;100687.81;1719784;83;21060;-68
2022/11/27 18:29:37;;;;;;;9.43;5.85;;;;;;;-0.98;100.00;100701.08;1711628;83;21678;-68
2022/11/27 18:32:04;;;;;;;8.60;5.47;;;;;;;-0.83;100.00;100702.85;1715366;83;21041;-68
2022/11/27 18:34:30;;;;;;;8.88;5.22;;;;;;;-0.67;100.00;100713.45;1664329;83;21048;-68
2022/11/27 18:36:58;;;;;;;9.50;5.20;;;;;;;-0.55;100.00;100711.22;1715963;83;21005;-68
2022/11/27 18:39:25;;;;;;;7.42;4.87;;;;;;;-0.50;100.00;100707.52;1720517;83;21061;-68
2022/11/27 18:41:51;;;;;;;7.05;4.10;;;;;;;-0.41;100.00;100712.30;1711897;83;21603;-68
2022/11/27 18:44:18;;;;;;;6.65;4.58;;;;;;;-0.29;100.00;100712.23;1716353;82;21061;-68
2022/11/27 18:46:45;;;;;;;7.37;4.50;;;;;;;-0.25;100.00;100703.64;1715979;83;21081;-68
2022/11/27 18:49:12;;;;;;;7.60;4.62;;;;;;;-0.28;100.00;100699.16;1716029;83;21113;-68
2022/11/27 18:51:39;;;;;;;7.55;4.90;;;;;;;-0.25;100.00;100697.48;1720523;83;21087;-68
2022/11/27 18:54:06;;;;;;;8.23;4.65;;;;;;;-0.16;100.00;100696.40;1688861;83;21116;-68
2022/11/27 18:56:32;;;;;;;6.70;4.65;;;;;;;-0.13;100.00;100696.03;1722045;83;21551;-68
2022/11/27 18:59:03;;;;;;;11.70;6.75;;;;;;;-0.12;100.00;100694.53;1715297;82;21044;-68
2022/11/27 19:01:34;;;;;;;12.60;7.10;;;;;;;-0.09;100.00;100702.70;1721429;83;21016;-68
2022/11/27 19:04:02;;;;;;;12.93;7.55;;;;;;;-0.03;100.00;100696.12;1714568;83;21115;-68
2022/11/27 19:06:29;;;;;;;13.93;7.80;;;;;;;0.10;100.00;100706.23;1716721;83;21080;-68
2022/11/27 19:08:57;;;;;;;13.13;6.97;;;;;;;0.08;100.00;100702.89;1722085;82;21044;-68
2022/11/27 19:11:25;;;;;;;9.20;5.50;;;;;;;0.00;100.00;100701.11;1717534;83;21021;-68
2022/11/27 19:13:54;;;;;;;8.68;5.12;;;;;;;0.02;100.00;100700.11;1713224;83;21025;-68
2022/11/27 19:16:23;;;;;;;9.88;5.37;;;;;;;0.08;100.00;100704.73;1722144;83;21048;-68
2022/11/27 19:18:50;;;;;;;8.08;5.15;;;;;;;0.08;100.00;100700.21;1721979;83;21058;-68
2022/11/27 19:21:22;;;;;;;7.62;4.75;;;;;;;0.04;100.00;100696.76;1715222;83;21044;-68
2022/11/27 19:23:49;;;;;;;8.35;4.30;;;;;;;-0.02;100.00;100697.79;1709151;84;21615;-68
2022/11/27 19:26:19;;;;;;;13.88;8.65;;;;;;;-0.01;100.00;100701.30;1709321;84;21017;-68
2022/11/27 19:28:49;;;;;;;12.43;7.58;;;;;;;0.00;100.00;100697.63;1708675;84;21120;-70
2022/11/27 19:31:16;;;;;;;11.75;6.45;;;;;;;-0.04;100.00;100698.99;1708962;84;21064;-69
2022/11/27 19:33:42;;;;;;;9.85;4.87;;;;;;;-0.04;100.00;100703.01;1708853;84;21060;-68
2022/11/27 19:36:11;;;;;;;7.62;4.67;;;;;;;0.01;100.00;100707.30;1687759;84;21498;-68
2022/11/27 19:38:39;;;;;;;9.85;6.47;;;;;;;-0.01;100.00;100702.14;1689742;84;21511;-68
2022/11/27 19:41:11;;;;;;;9.58;5.15;;;;;;;-0.07;100.00;100702.00;1686879;84;21086;-68
2022/11/27 19:43:38;;;;;;;8.05;4.45;;;;;;;-0.07;100.00;100697.98;1705635;84;21027;-68
2022/11/27 19:46:14;;;;;;;9.55;6.15;;;;;;;-0.01;100.00;100702.64;1699631;84;21563;-68
2022/11/27 19:48:41;;;;;;;8.30;4.83;;;;;;;0.02;100.00;100705.45;1699138;82;21528;-68
2022/11/27 19:51:08;;;;;;;6.58;4.00;;;;;;;-0.07;100.00;100697.98;1701564;83;21008;-69
2022/11/27 19:53:36;;;;;;;7.90;4.22;;;;;;;-0.04;100.00;100701.67;1707150;84;21095;-69
2022/11/27 19:56:04;;;;;;;7.97;4.10;;;;;;;-0.02;100.00;100706.33;1706024;83;21455;-69
2022/11/27 19:58:31;;;;;;;7.80;4.60;;;;;;;-0.01;100.00;100712.84;1708447;84;21029;-69
2022/11/27 20:01:12;;;;;;;8.45;4.50;;;;;;;-0.09;100.00;100708.05;1708422;84;21018;-69
2022/11/27 20:03:38;;;;;;;8.23;4.08;;;;;;;-0.14;100.00;100709.08;1708533;84;21595;-69
2022/11/27 20:06:07;;;;;;;7.22;3.27;;;;;;;-0.13;100.00;100704.06;1708913;83;21554;-69
2022/11/27 20:08:34;;;;;;;5.47;3.37;;;;;;;-0.05;100.00;100702.67;1708837;84;21520;-69
2022/11/27 20:11:00;;;;;;;6.47;3.37;;;;;;;-0.09;100.00;100708.05;1708813;84;21543;-69
2022/11/27 20:13:28;;;;;;;6.12;3.72;;;;;;;-0.14;100.00;100707.75;1708683;84;21099;-69
2022/11/27 20:15:55;;;;;;;5.17;3.10;;;;;;;-0.20;100.00;100700.44;1708836;84;21089;-69
2022/11/27 20:18:21;;;;;;;;;;;;;;;-0.17;100.00;100706.27;1691129;84;21022;-69
2022/11/27 20:20:48;;;;;;;5.83;3.90;;;;;;;-0.04;100.00;100712.38;1692342;83;20121;-69
2022/11/27 20:23:16;;;;;;;5.37;3.45;;;;;;;-0.06;100.00;100719.23;1729601;83;21582;-69
2022/11/27 20:25:42;;;;;;;5.03;3.45;;;;;;;-0.12;100.00;100713.77;1730019;83;21044;-69
2022/11/27 20:28:09;;;;;;;4.95;2.85;;;;;;;-0.15;100.00;100716.31;1729671;83;21032;-69
2022/11/27 20:30:39;;;;;;;5.30;3.30;;;;;;;-0.09;100.00;100716.08;1730082;83;21008;-68
2022/11/27 20:33:05;;;;;;;6.40;3.77;;;;;;;-0.08;100.00;100718.59;1702917;83;21511;-68
2022/11/27 20:35:31;;;;;;;4.62;3.12;;;;;;;-0.13;100.00;100718.78;1729984;83;20981;-69
2022/11/27 20:37:57;;;;;;;6.85;3.42;;;;;;;-0.15;100.00;100712.30;1729984;83;21248;-69
2022/11/27 20:40:24;;;;;;;6.10;3.60;;;;;;;-0.06;100.00;100714.38;1730046;83;21500;-69
2022/11/27 20:42:51;;;;;;;5.60;3.45;;;;;;;-0.07;100.00;100708.19;1729705;83;21020;-68
2022/11/27 20:45:17;;;;;;;6.97;3.10;;;;;;;-0.11;100.00;100708.75;1729842;83;20993;-69
2022/11/27 20:47:44;;;;;;;;;;;;;;;-0.13;100.00;100717.45;1732482;83;21923;-69
2022/11/27 20:50:11;;;;;;;4.85;2.67;;;;;;;-0.08;100.00;100713.24;1730392;83;20113;-68
2022/11/27 20:52:39;;;;;;;4.72;3.00;;;;;;;-0.06;100.00;100709.03;1730445;83;21754;-69
2022/11/27 20:55:06;;;;;;;5.45;2.58;;;;;;;-0.07;100.00;100712.70;1731037;83;21000;-69
2022/11/27 20:57:33;;;;;;;5.28;3.00;;;;;;;-0.10;100.00;100713.07;1730458;83;21645;-69
2022/11/27 21:00:00;;;;;;;4.62;3.17;;;;;;;-0.14;100.00;100712.59;1730840;83;21413;-68
2022/11/27 21:02:27;;;;;;;4.78;2.62;;;;;;;-0.14;100.00;100706.41;1729858;83;21120;-68
2022/11/27 21:04:53;;;;;;;5.67;2.98;;;;;;;-0.04;100.00;100712.38;1729694;83;21020;-68
2022/11/27 21:07:20;;;;;;;4.10;2.72;;;;;;;0.00;100.00;100717.17;1729253;83;21593;-68
2022/11/27 21:09:48;;;;;;;3.85;2.75;;;;;;;-0.03;100.00;100710.00;1730687;83;21084;-69
2022/11/27 21:12:15;;;;;;;4.17;2.80;;;;;;;-0.03;100.00;100718.87;1730458;83;21527;-69
2022/11/27 21:14:43;;;;;;;5.45;2.67;;;;;;;0.06;100.00;100713.46;1730362;83;21040;-69
2022/11/27 21:17:09;;;;;;;4.05;2.52;;;;;;;0.08;100.00;100712.76;1725400;83;21064;-68
2022/11/27 21:19:36;;;;;;;5.05;3.12;;;;;;;0.02;100.00;100718.34;1695734;84;21551;-68
2022/11/27 21:22:02;;;;;;;7.55;3.52;;;;;;;-0.03;100.00;100726.06;1683884;84;21025;-69
2022/11/27 21:24:29;;;;;;;6.70;3.95;;;;;;;-0.01;100.00;100722.22;1675370;85;21054;-69
2022/11/27 21:26:56;;;;;;;7.65;4.12;;;;;;;0.08;100.00;100714.09;1675830;84;21470;-68
2022/11/27 21:29:26;;;;;;;8.90;4.65;;;;;;;0.07;100.00;100724.00;1675452;84;21112;-69
2022/11/27 21:31:52;;;;;;;8.58;4.22;;;;;;;0.02;100.00;100725.53;1675417;85;21065;-68
2022/11/27 21:34:19;;;;;;;7.42;3.67;;;;;;;-0.03;100.00;100724.73;1675315;84;21037;-68
2022/11/27 21:36:45;;;;;;;8.53;4.12;;;;;;;-0.02;100.00;100725.06;1675629;85;21539;-68
2022/11/27 21:39:13;;;;;;;7.55;4.55;;;;;;;0.06;100.00;100723.67;1675461;84;21030;-68
2022/11/27 21:41:40;;;;;;;8.95;4.92;;;;;;;0.07;100.00;100733.38;1675412;85;21038;-68
2022/11/27 21:44:06;;;;;;;8.70;4.33;;;;;;;-0.01;100.00;100728.08;1675081;84;21140;-68
2022/11/27 21:46:33;;;;;;;8.18;4.03;;;;;;;-0.05;100.00;100734.30;1674514;85;21655;-68
2022/11/27 21:49:02;;;;;;;6.92;3.50;;;;;;;-0.02;100.00;100731.75;1639460;86;21131;-68
2022/11/27 21:51:28;;;;;;;6.05;3.60;;;;;;;0.09;100.00;100731.84;1639492;86;21724;-68
2022/11/27 21:53:56;;;;;;;5.60;3.50;;;;;;;0.12;100.00;100734.98;1639564;86;21088;-69
2022/11/27 21:56:25;;;;;;;6.33;3.58;;;;;;;0.09;100.00;100724.64;1639471;87;21134;-69
2022/11/27 21:58:52;;;;;;;5.00;2.90;;;;;;;0.04;100.00;100725.67;1639576;86;21112;-69
2022/11/27 22:01:22;;;;;;;6.03;3.08;;;;;;;0.11;100.00;100725.81;1639402;87;21080;-69
2022/11/27 22:03:53;;;;;;;4.40;2.87;;;;;;;0.19;100.00;100725.22;1639419;86;21111;-69
2022/11/27 22:06:20;;;;;;;4.37;2.67;;;;;;;0.18;100.00;100724.08;1639575;87;21123;-69